Time;durP1;ratioP1;P1;durP2;ratioP2;P2;SDS_P1;SDS_P2;PMS_P1;PMS_P2;Temp;Humidity;BMP_temperature;BMP_pressure;BME280_temperature;BME280_humidity;BME280_pressure;Samples;Min_cycle;Max_cycle;Signal;HPM_P1;HPM_P2
2023/12/19 00:01:16;;;;;;;;;;;;;;;2.68;69.54;100861.25;4356588;32;33886;-90
2023/12/19 00:03:45;;;;;;;;;;;;;;;2.81;69.49;100857.44;4361083;32;33640;-87
2023/12/19 00:06:17;;;;;;;;;;;;;;;2.77;69.42;100856.44;4362517;32;34601;-86
2023/12/19 00:08:49;;;;;;;;;;;;;;;2.59;70.17;100857.47;4356812;32;33643;-90
2023/12/19 00:11:19;;;;;;;;;;;;;;;2.66;70.12;100847.50;4355859;32;33771;-86
2023/12/19 00:13:50;;;;;;;;;;;;;;;2.71;69.83;100848.53;4366389;32;34759;-87
2023/12/19 00:16:19;;;;;;;;;;;;;;;2.74;69.56;100855.47;4357024;32;34505;-87
2023/12/19 00:18:50;;;;;;;;;;;;;;;2.63;69.84;100852.50;4363591;32;35352;-88
2023/12/19 00:21:19;;;;;;;;;;;;;;;2.67;69.59;100850.94;4359993;32;34239;-86
2023/12/19 00:23:51;;;;;;;;;;;;;;;2.49;69.79;100851.09;4358509;32;33893;-90
2023/12/19 00:26:21;;;;;;;;;;;;;;;2.55;69.85;100856.47;4345850;32;33821;-87
2023/12/19 00:28:51;;;;;;;;;;;;;;;2.63;69.40;100856.75;4370916;32;32414;-87
2023/12/19 00:31:20;;;;;;;;;;;;;;;2.54;70.12;100855.59;4349899;32;34336;-87
2023/12/19 00:33:55;;;;;;;;;;;;;;;2.40;70.02;100861.88;4354242;32;34412;-87
2023/12/19 00:36:24;;;;;;;;;;;;;;;2.62;69.59;100855.88;4347041;32;33859;-87
2023/12/19 00:38:54;;;;;;;;;;;;;;;2.31;69.91;100859.81;4366275;32;31661;-88
2023/12/19 00:41:25;;;;;;;;;;;;;;;2.45;69.93;100860.37;4354091;32;34443;-88
2023/12/19 00:44:01;;;;;;;;;;;;;;;2.50;69.72;100856.28;4355238;32;34116;-87
2023/12/19 00:46:29;;;;;;;;;;;;;;;2.60;69.78;100867.75;4358190;32;34389;-88
2023/12/19 00:49:01;;;;;;;;;;;;;;;2.42;70.40;100874.75;4364635;32;34200;-86
2023/12/19 00:51:29;;;;;;;;;;;;;;;2.57;69.91;100867.66;4364605;32;34104;-87
2023/12/19 00:53:59;;;;;;;;;;;;;;;2.45;69.96;100878.28;4361215;32;35438;-88
2023/12/19 00:56:32;;;;;;;;;;;;;;;2.61;69.76;100871.19;4364373;32;34220;-87
2023/12/19 00:59:02;;;;;;;;;;;;;;;2.55;69.73;100869.28;4356528;32;33621;-87
2023/12/19 01:01:31;;;;;;;;;;;;;;;2.60;69.90;100870.31;4363484;32;32783;-86
2023/12/19 01:04:00;;;;;;;;;;;;;;;2.47;70.39;100866.41;4353599;32;33746;-86
2023/12/19 01:06:31;;;;;;;;;;;;;;;2.50;70.48;100857.97;4350565;32;34448;-86
2023/12/19 01:09:00;;;;;;;;;;;;;;;2.46;70.19;100853.53;4358416;32;32622;-86
2023/12/19 01:11:31;;;;;;;;;;;;;;;2.58;70.48;100858.25;4360276;32;33866;-86
2023/12/19 01:13:59;;;;;;;;;;;;;;;2.57;69.87;100852.28;4360475;32;33752;-89
2023/12/19 01:16:29;;;;;;;;;;;;;;;2.63;70.32;100856.75;4355143;32;34292;-88
2023/12/19 01:18:57;;;;;;;;;;;;;;;2.54;70.77;100863.28;4368231;32;33631;-88
2023/12/19 01:21:27;;;;;;;;;;;;;;;2.56;70.71;100865.88;4358208;32;33732;-86
2023/12/19 01:23:55;;;;;;;;;;;;;;;2.55;70.71;100867.56;4364109;32;34769;-86
2023/12/19 01:26:27;;;;;;;;;;;;;;;2.64;70.80;100863.63;4354389;32;32585;-88
2023/12/19 01:28:59;;;;;;;;;;;;;;;2.51;70.94;100860.63;4355025;32;33777;-87
2023/12/19 01:31:31;;;;;;;;;;;;;;;2.71;70.34;100858.78;4356582;32;33462;-87
2023/12/19 01:33:59;;;;;;;;;;;;;;;2.68;70.47;100857.78;4344860;32;33501;-89
2023/12/19 01:36:29;;;;;;;;;;;;;;;2.52;70.65;100859.78;4361253;32;34196;-87
2023/12/19 01:38:59;;;;;;;;;;;;;;;2.52;70.83;100864.91;4354943;32;33785;-86
2023/12/19 01:41:33;;;;;;;;;;;;;;;2.47;70.86;100856.19;4348648;32;34536;-87
2023/12/19 01:44:04;;;;;;;;;;;;;;;2.47;71.22;100857.87;4363258;32;33870;-86
2023/12/19 01:46:32;;;;;;;;;;;;;;;2.47;70.56;100851.06;4358733;32;33980;-86
2023/12/19 01:49:02;;;;;;;;;;;;;;;2.44;70.83;100835.59;4356960;32;34774;-86
2023/12/19 01:51:34;;;;;;;;;;;;;;;2.23;70.87;100832.19;4355610;32;33502;-86
2023/12/19 01:54:04;;;;;;;;;;;;;;;2.50;70.47;100829.81;4365180;32;34208;-88
2023/12/19 01:56:35;;;;;;;;;;;;;;;2.46;70.18;100817.69;4362366;32;33904;-85
2023/12/19 01:59:05;;;;;;;;;;;;;;;2.25;71.00;100810.09;4355430;32;33673;-85
2023/12/19 02:01:38;;;;;;;;;;;;;;;2.14;71.38;100801.97;4350453;32;33999;-86
2023/12/19 02:04:07;;;;;;;;;;;;;;;2.19;70.87;100803.03;4355779;32;33750;-86
2023/12/19 02:06:42;;;;;;;;;;;;;;;2.34;70.06;100803.63;4355337;32;34014;-85
2023/12/19 02:09:10;;;;;;;;;;;;;;;2.19;70.53;100799.59;4359372;32;33278;-86
2023/12/19 02:11:39;;;;;;;;;;;;;;;2.19;71.08;100781.69;4359959;32;33734;-85
2023/12/19 02:14:09;;;;;;;;;;;;;;;2.22;70.93;100785.22;4360301;32;34071;-85
2023/12/19 02:16:39;;;;;;;;;;;;;;;2.37;70.81;100776.37;4363309;32;33446;-86
2023/12/19 02:19:12;;;;;;;;;;;;;;;2.33;71.18;100785.63;4359780;32;32780;-86
2023/12/19 02:21:42;;;;;;;;;;;;;;;1.86;72.98;100793.22;4360313;32;33742;-88
2023/12/19 02:24:15;;;;;;;;;;;;;;;2.05;72.95;100793.94;4361232;32;34468;-85
2023/12/19 02:26:45;;;;;;;;;;;;;;;2.01;72.89;100789.53;4350334;32;34619;-87
2023/12/19 02:29:14;;;;;;;;;;;;;;;1.58;74.92;100782.69;4353285;32;32948;-86
2023/12/19 02:31:46;;;;;;;;;;;;;;;1.49;75.39;100789.16;4355439;32;33859;-86
2023/12/19 02:34:15;;;;;;;;;;;;;;;1.94;74.23;100778.19;4355558;32;34112;-86
2023/12/19 02:36:43;;;;;;;;;;;;;;;2.09;73.05;100785.56;4354816;32;33076;-86
2023/12/19 02:39:13;;;;;;;;;;;;;;;1.53;76.02;100789.31;4358318;32;33256;-86
2023/12/19 02:41:55;;;;;;;;;;;;;;;1.32;76.57;100786.75;4355655;32;34180;-87
2023/12/19 02:44:24;;;;;;;;;;;;;;;1.26;76.46;100788.22;4359261;32;35729;-88
2023/12/19 02:47:00;;;;;;;;;;;;;;;1.31;77.19;100788.44;4364923;32;34343;-86
2023/12/19 02:49:29;;;;;;;;;;;;;;;0.81;79.44;100784.59;4357138;32;33649;-86
2023/12/19 02:51:59;;;;;;;;;;;;;;;0.88;79.00;100790.84;4355573;32;34705;-88
2023/12/19 02:54:31;;;;;;;;;;;;;;;1.15;77.70;100794.56;4357229;32;34977;-87
2023/12/19 02:57:01;;;;;;;;;;;;;;;1.36;77.26;100789.50;4365878;32;34243;-86
2023/12/19 02:59:30;;;;;;;;;;;;;;;1.40;77.02;100790.47;4352495;32;33065;-86
2023/12/19 03:02:02;;;;;;;;;;;;;;;1.07;77.63;100783.16;4357777;32;33754;-87
2023/12/19 03:04:30;;;;;;;;;;;;;;;0.81;78.55;100788.00;4363438;32;33597;-88
2023/12/19 03:07:02;;;;;;;;;;;;;;;0.18;81.56;100785.19;4366166;32;34741;-85
2023/12/19 03:09:31;;;;;;;;;;;;;;;0.67;80.18;100781.41;4364759;32;33085;-86
2023/12/19 03:12:07;;;;;;;;;;;;;;;1.28;77.38;100781.50;4359041;32;34899;-89
2023/12/19 03:14:40;;;;;;;;;;;;;;;1.65;75.91;100769.34;4367122;32;32071;-86
2023/12/19 03:17:08;;;;;;;;;;;;;;;1.40;76.97;100767.47;4354953;32;34225;-85
2023/12/19 03:19:39;;;;;;;;;;;;;;;1.46;76.90;100771.16;4361265;32;33551;-86
2023/12/19 03:22:10;;;;;;;;;;;;;;;1.49;77.17;100760.19;4355964;32;35107;-87
2023/12/19 03:24:39;;;;;;;;;;;;;;;1.60;76.90;100760.62;4359211;32;34270;-86
2023/12/19 03:27:12;;;;;;;;;;;;;;;1.21;79.29;100763.31;4356011;32;32533;-85
2023/12/19 03:29:41;;;;;;;;;;;;;;;1.48;76.83;100759.31;4358912;32;33311;-87
2023/12/19 03:32:12;;;;;;;;;;;;;;;1.47;78.09;100756.69;4365054;32;33226;-85
2023/12/19 03:34:47;;;;;;;;;;;;;;;1.83;76.74;100759.81;4361755;32;33705;-86
2023/12/19 03:37:17;;;;;;;;;;;;;;;1.83;76.36;100762.37;4366331;32;33412;-88
2023/12/19 03:39:46;;;;;;;;;;;;;;;1.75;77.19;100763.78;4358087;32;33016;-88
2023/12/19 03:42:16;;;;;;;;;;;;;;;1.38;78.33;100762.31;4362021;32;34435;-86
2023/12/19 03:44:45;;;;;;;;;;;;;;;1.54;77.94;100762.91;4357652;32;34064;-87
2023/12/19 03:47:16;;;;;;;;;;;;;;;1.84;77.18;100768.41;4347439;32;33276;-87
2023/12/19 03:49:51;;;;;;;;;;;;;;;1.75;77.56;100752.69;4342417;33;33379;-85
2023/12/19 03:52:20;;;;;;;;;;;;;;;1.45;78.23;100760.84;4343958;33;33868;-86
2023/12/19 03:54:52;;;;;;;;;;;;;;;1.78;77.95;100747.69;4358700;32;33515;-87
2023/12/19 03:57:22;;;;;;;;;;;;;;;1.77;78.07;100744.25;4357060;32;34699;-87
2023/12/19 03:59:53;;;;;;;;;;;;;;;1.77;77.80;100749.37;4357234;32;33362;-87
2023/12/19 04:02:22;;;;;;;;;;;;;;;0.83;80.68;100758.28;4355829;32;34243;-85
2023/12/19 04:04:56;;;;;;;;;;;;;;;0.94;81.40;100756.19;4361894;32;34283;-86
2023/12/19 04:07:24;;;;;;;;;;;;;;;1.38;79.71;100757.19;4355159;32;34268;-86
2023/12/19 04:09:53;;;;;;;;;;;;;;;1.23;80.90;100764.22;4342636;33;34085;-86
2023/12/19 04:12:23;;;;;;;;;;;;;;;1.42;80.49;100758.19;4358281;32;33659;-85
2023/12/19 04:14:54;;;;;;;;;;;;;;;1.49;79.26;100765.28;4353924;32;34723;-86
2023/12/19 04:17:25;;;;;;;;;;;;;;;1.55;78.58;100759.53;4372853;32;33883;-86
2023/12/19 04:19:54;;;;;;;;;;;;;;;1.18;80.21;100761.47;4371966;32;33442;-86
2023/12/19 04:22:26;;;;;;;;;;;;;;;1.02;81.01;100769.31;4361651;32;33855;-85
2023/12/19 04:25:01;;;;;;;;;;;;;;;1.71;77.95;100764.47;4358694;32;34545;-86
2023/12/19 04:27:31;;;;;;;;;;;;;;;1.09;80.52;100780.66;4358109;32;33765;-87
2023/12/19 04:30:01;;;;;;;;;;;;;;;0.50;83.29;100770.44;4360183;32;34229;-87
2023/12/19 04:32:30;;;;;;;;;;;;;;;0.62;82.66;100770.13;4364227;32;33785;-86
2023/12/19 04:34:58;;;;;;;;;;;;;;;-0.12;85.57;100777.00;4372328;32;33647;-86
2023/12/19 04:37:28;;;;;;;;;;;;;;;0.64;84.10;100768.50;4358296;32;34325;-87
2023/12/19 04:39:57;;;;;;;;;;;;;;;0.72;82.70;100779.94;4372713;32;33736;-86
2023/12/19 04:42:32;;;;;;;;;;;;;;;0.38;85.86;100770.78;4356799;32;33682;-86
2023/12/19 04:45:00;;;;;;;;;;;;;;;0.92;82.63;100760.38;4356695;32;34713;-84
2023/12/19 04:47:32;;;;;;;;;;;;;;;0.85;82.32;100758.38;4358695;32;33809;-85
2023/12/19 04:50:05;;;;;;;;;;;;;;;0.85;81.73;100771.16;4370367;32;33386;-88
2023/12/19 04:52:34;;;;;;;;;;;;;;;0.70;82.15;100771.34;4366899;32;33562;-86
2023/12/19 04:55:11;;;;;;;;;;;;;;;1.16;81.63;100774.97;4364456;32;34582;-86
2023/12/19 04:57:40;;;;;;;;;;;;;;;0.17;85.60;100780.00;4367338;32;34770;-86
2023/12/19 05:00:10;;;;;;;;;;;;;;;-0.01;86.60;100792.78;4356358;32;32831;-86
2023/12/19 05:02:38;;;;;;;;;;;;;;;0.15;87.39;100812.25;4361156;32;34146;-85
2023/12/19 05:05:07;;;;;;;;;;;;;;;0.67;85.16;100798.41;4360736;32;34945;-85
2023/12/19 05:07:37;;;;;;;;;;;;;;;0.65;83.22;100795.78;4367733;32;33933;-85
2023/12/19 05:10:05;;;;;;;;;;;;;;;0.59;83.34;100792.97;4368536;32;34027;-86
2023/12/19 05:12:44;;;;;;;;;;;;;;;0.61;84.42;100793.94;4364920;32;33894;-86
2023/12/19 05:15:14;;;;;;;;;;;;;;;0.54;84.92;100789.34;4362580;32;35010;-86
2023/12/19 05:17:42;;;;;;;;;;;;;;;1.01;82.25;100782.87;4357190;32;33729;-85
2023/12/19 05:20:25;;;;;;;;;;;;;;;0.73;83.65;100779.16;4371757;32;33257;-86
2023/12/19 05:22:55;;;;;;;;;;;;;;;0.44;83.29;100767.62;4364146;32;33871;-84
2023/12/19 05:25:25;;;;;;;;;;;;;;;0.49;83.72;100776.37;4358561;32;33205;-85
2023/12/19 05:27:58;;;;;;;;;;;;;;;0.11;85.00;100782.28;4361202;32;33563;-87
2023/12/19 05:30:27;;;;;;;;;;;;;;;0.14;86.97;100769.66;4364832;32;32787;-85
2023/12/19 05:33:02;;;;;;;;;;;;;;;0.35;84.01;100762.97;4358105;32;33616;-86
2023/12/19 05:35:31;;;;;;;;;;;;;;;0.17;83.70;100768.13;4356151;32;33938;-88
2023/12/19 05:37:59;;;;;;;;;;;;;;;0.32;84.96;100772.19;4354994;32;34494;-85
2023/12/19 05:40:29;;;;;;;;;;;;;;;1.02;81.43;100770.19;4355194;32;33397;-88
2023/12/19 05:43:06;;;;;;;;;;;;;;;0.88;81.17;100755.06;4367378;32;34201;-86
2023/12/19 05:45:35;;;;;;;;;;;;;;;1.21;80.86;100753.06;4355097;32;33751;-86
2023/12/19 05:48:09;;;;;;;;;;;;;;;1.37;79.01;100742.66;4354827;32;34219;-86
2023/12/19 05:50:37;;;;;;;;;;;;;;;1.17;79.61;100746.94;4361415;32;33650;-87
2023/12/19 05:53:13;;;;;;;;;;;;;;;1.51;79.55;100740.66;4357437;32;33753;-85
2023/12/19 05:55:47;;;;;;;;;;;;;;;1.40;78.81;100747.91;4358959;32;34236;-86
2023/12/19 05:58:17;;;;;;;;;;;;;;;1.50;78.71;100736.38;4355195;32;34056;-87
2023/12/19 06:00:55;;;;;;;;;;;;;;;1.59;78.54;100730.72;4356176;32;33386;-85
2023/12/19 06:03:32;;;;;;;;;;;;;;;1.27;80.78;100733.72;4360994;32;33478;-87
2023/12/19 06:06:00;;;;;;;;;;;;;;;1.41;78.24;100736.00;4358855;32;33828;-85
2023/12/19 06:08:29;;;;;;;;;;;;;;;1.33;79.49;100745.00;4356095;32;34743;-86
2023/12/19 06:10:59;;;;;;;;;;;;;;;0.83;80.71;100730.19;4356087;32;33040;-84
2023/12/19 06:13:31;;;;;;;;;;;;;;;1.10;81.43;100729.59;4360868;32;33990;-84
2023/12/19 06:16:02;;;;;;;;;;;;;;;0.94;80.64;100732.31;4361217;32;34947;-84
2023/12/19 06:18:33;;;;;;;;;;;;;;;1.36;79.84;100732.37;4344513;32;33900;-85
2023/12/19 06:21:03;;;;;;;;;;;;;;;0.83;81.34;100719.97;4341868;32;31848;-84
2023/12/19 06:23:32;;;;;;;;;;;;;;;0.66;82.79;100736.25;4362775;32;33917;-85
2023/12/19 06:26:04;;;;;;;;;;;;;;;0.88;82.29;100734.63;4360647;32;34026;-86
2023/12/19 06:28:42;;;;;;;;;;;;;;;0.96;82.19;100730.72;4355376;32;33976;-86
2023/12/19 06:31:11;;;;;;;;;;;;;;;1.25;80.04;100717.44;4357936;32;33507;-87
2023/12/19 06:33:40;;;;;;;;;;;;;;;1.39;79.65;100709.47;4358118;32;34195;-85
2023/12/19 06:36:09;;;;;;;;;;;;;;;0.87;80.55;100717.53;4356858;32;33749;-84
2023/12/19 06:38:40;;;;;;;;;;;;;;;1.19;80.86;100727.44;4360472;32;34690;-86
2023/12/19 06:41:09;;;;;;;;;;;;;;;1.05;80.45;100742.19;4355857;32;33260;-87
2023/12/19 06:43:39;;;;;;;;;;;;;;;1.51;79.23;100732.97;4356385;32;33729;-84
2023/12/19 06:46:14;;;;;;;;;;;;;;;1.35;79.00;100731.47;4363065;32;33867;-87
2023/12/19 06:48:44;;;;;;;;;;;;;;;1.09;81.40;100737.19;4357516;32;33687;-84
2023/12/19 06:51:24;;;;;;;;;;;;;;;0.95;80.72;100732.41;4345951;32;33579;-86
2023/12/19 06:53:53;;;;;;;;;;;;;;;0.79;82.23;100743.62;4355640;32;33164;-84
2023/12/19 06:56:28;;;;;;;;;;;;;;;1.17;81.04;100744.38;4354047;32;34108;-84
2023/12/19 06:59:00;;;;;;;;;;;;;;;1.59;78.15;100735.84;4360930;32;34790;-87
2023/12/19 07:01:29;;;;;;;;;;;;;;;1.56;78.49;100743.41;4360368;32;33739;-84
2023/12/19 07:03:58;;;;;;;;;;;;;;;0.68;81.10;100749.06;4353862;32;34903;-86
2023/12/19 07:06:31;;;;;;;;;;;;;;;1.05;81.61;100756.66;4354905;32;33623;-83
2023/12/19 07:09:00;;;;;;;;;;;;;;;1.27;80.09;100750.75;4354397;32;33768;-85
2023/12/19 07:11:30;;;;;;;;;;;;;;;1.37;79.77;100746.88;4354869;32;33120;-85
2023/12/19 07:13:59;;;;;;;;;;;;;;;0.99;80.18;100743.59;4360868;32;33695;-87
2023/12/19 07:16:28;;;;;;;;;;;;;;;0.75;81.02;100743.44;4354654;32;34702;-84
2023/12/19 07:18:57;;;;;;;;;;;;;;;1.04;81.16;100747.25;4355149;32;34664;-84
2023/12/19 07:21:26;;;;;;;;;;;;;;;1.28;79.38;100740.59;4360572;32;33147;-83
2023/12/19 07:24:02;;;;;;;;;;;;;;;1.15;80.57;100732.34;4359779;32;33315;-85
2023/12/19 07:26:31;;;;;;;;;;;;;;;1.44;79.95;100731.84;4355680;32;34347;-84
2023/12/19 07:29:08;;;;;;;;;;;;;;;0.96;81.20;100726.47;4356656;32;35833;-84
2023/12/19 07:31:41;;;;;;;;;;;;;;;1.47;79.64;100731.09;4356979;32;33184;-83
2023/12/19 07:34:10;;;;;;;;;;;;;;;1.44;79.41;100744.63;4358196;32;34631;-83
2023/12/19 07:36:39;;;;;;;;;;;;;;;1.40;79.29;100758.13;4361987;32;33589;-86
2023/12/19 07:39:10;;;;;;;;;;;;;;;1.56;79.80;100768.97;4353328;32;34312;-86
2023/12/19 07:41:39;;;;;;;;;;;;;;;1.21;80.17;100760.75;4356003;32;32389;-84
2023/12/19 07:44:09;;;;;;;;;;;;;;;1.73;79.01;100746.63;4356815;32;33810;-86
2023/12/19 07:46:41;;;;;;;;;;;;;;;1.59;79.03;100736.72;4361947;32;35207;-84
2023/12/19 07:49:10;;;;;;;;;;;;;;;1.62;78.39;100741.97;4357142;32;33575;-84
2023/12/19 07:51:38;;;;;;;;;;;;;;;1.80;78.97;100749.47;4356158;32;33618;-85
2023/12/19 07:54:10;;;;;;;;;;;;;;;1.87;78.49;100745.47;4356463;32;33938;-84
2023/12/19 07:56:43;;;;;;;;;;;;;;;1.85;77.47;100744.53;4356601;32;34787;-83
2023/12/19 07:59:16;;;;;;;;;;;;;;;1.53;78.52;100748.41;4361252;32;33973;-84
2023/12/19 08:01:47;;;;;;;;;;;;;;;1.38;80.62;100756.31;4357308;32;32848;-84
2023/12/19 08:04:16;;;;;;;;;;;;;;;1.65;78.64;100749.75;4356858;32;33814;-87
2023/12/19 08:06:48;;;;;;;;;;;;;;;1.20;80.71;100757.28;4356589;32;34157;-84
2023/12/19 08:09:17;;;;;;;;;;;;;;;1.01;81.37;100759.88;4357068;32;33938;-86
2023/12/19 08:11:45;;;;;;;;;;;;;;;1.32;79.63;100758.63;4359381;32;33315;-86
2023/12/19 08:14:16;;;;;;;;;;;;;;;1.64;79.25;100750.56;4358624;32;34311;-83
2023/12/19 08:16:45;;;;;;;;;;;;;;;1.88;78.11;100753.19;4357270;32;33933;-86
2023/12/19 08:19:20;;;;;;;;;;;;;;;1.78;78.04;100757.91;4355997;32;34739;-83
2023/12/19 08:21:51;;;;;;;;;;;;;;;1.93;78.05;100758.50;4360944;32;32832;-83
2023/12/19 08:24:21;;;;;;;;;;;;;;;2.12;77.26;100762.63;4356690;32;34527;-87
2023/12/19 08:26:50;;;;;;;;;;;;;;;1.27;80.13;100768.66;4358351;32;34886;-84
2023/12/19 08:29:23;;;;;;;;;;;;;;;1.42;80.03;100776.94;4355210;32;34120;-84
2023/12/19 08:31:52;;;;;;;;;;;;;;;1.58;79.87;100768.22;4356750;32;34743;-85
2023/12/19 08:34:25;;;;;;;;;;;;;;;1.71;78.74;100756.78;4358784;32;33169;-83
2023/12/19 08:36:57;;;;;;;;;;;;;;;1.97;77.97;100755.25;4345123;32;33180;-84
2023/12/19 08:39:25;;;;;;;;;;;;;;;1.93;78.55;100755.94;4359564;32;34079;-87
2023/12/19 08:41:58;;;;;;;;;;;;;;;1.06;81.44;100772.06;4357099;32;33551;-83
2023/12/19 08:44:28;;;;;;;;;;;;;;;1.83;80.34;100766.63;4361835;32;33883;-84
2023/12/19 08:46:57;;;;;;;;;;;;;;;1.70;79.50;100761.03;4343617;32;34047;-85
2023/12/19 08:49:25;;;;;;;;;;;;;;;1.84;79.44;100766.72;4342089;33;34092;-84
2023/12/19 08:51:54;;;;;;;;;;;;;;;1.69;80.34;100760.97;4346308;32;32724;-85
2023/12/19 08:54:28;;;;;;;;;;;;;;;2.29;77.74;100766.72;4355808;32;33723;-84
2023/12/19 08:56:57;;;;;;;;;;;;;;;2.16;77.87;100761.09;4360940;32;34787;-87
2023/12/19 08:59:26;;;;;;;;;;;;;;;2.03;79.26;100750.38;4353427;32;34694;-84
2023/12/19 09:01:56;;;;;;;;;;;;;;;1.85;78.99;100747.97;4355216;32;33672;-86
2023/12/19 09:04:30;;;;;;;;;;;;;;;2.06;78.88;100742.81;4359962;32;33498;-87
2023/12/19 09:07:00;;;;;;;;;;;;;;;1.52;81.73;100728.72;4357168;32;33832;-84
2023/12/19 09:09:32;;;;;;;;;;;;;;;1.67;81.51;100724.25;4354970;32;34364;-86
2023/12/19 09:12:01;;;;;;;;;;;;;;;1.42;82.83;100720.69;4355965;32;33455;-84
2023/12/19 09:14:36;;;;;;;;;;;;;;;1.94;80.80;100723.56;4357673;32;33478;-84
2023/12/19 09:17:09;;;;;;;;;;;;;;;2.38;78.45;100725.22;4354828;32;33761;-86
2023/12/19 09:19:41;;;;;;;;;;;;;;;2.02;80.23;100723.03;4349954;32;36970;-85
2023/12/19 09:22:13;;;;;;;;;;;;;;;1.58;81.75;100716.22;4353056;32;33334;-84
2023/12/19 09:24:41;;;;;;;;;;;;;;;2.28;79.38;100707.78;4347742;32;34546;-85
2023/12/19 09:27:10;;;;;;;;;;;;;;;2.32;78.40;100696.81;4355736;32;35186;-84
2023/12/19 09:29:39;;;;;;;;;;;;;;;2.03;80.21;100688.06;4356009;32;33948;-87
2023/12/19 09:32:12;;;;;;;;;;;;;;;2.31;79.40;100679.72;4352670;32;33280;-85
2023/12/19 09:34:42;;;;;;;;;;;;;;;2.11;81.07;100682.44;4341288;33;33380;-86
2023/12/19 09:37:13;;;;;;;;;;;;;;;2.24;80.13;100680.31;4341914;32;35505;-84
2023/12/19 09:39:42;;;;;;;;;;;;;;;2.08;81.48;100666.97;4341486;33;35222;-85
2023/12/19 09:42:10;;;;;;;;;;;;;;;1.18;84.57;100666.88;4360817;32;32474;-87
2023/12/19 09:44:42;;;;;;;;;;;;;;;2.16;81.57;100663.81;4357266;32;34389;-87
2023/12/19 09:47:12;;;;;;;;;;;;;;;2.06;81.76;100654.94;4356788;32;34327;-85
2023/12/19 09:49:48;;;;;;;;;;;;;;;2.09;81.94;100642.22;4356348;32;33580;-86
2023/12/19 09:52:21;;;;;;;;;;;;;;;2.20;81.94;100640.94;4356840;32;32564;-86
2023/12/19 09:54:51;;;;;;;;;;;;;;;2.03;81.62;100631.75;4357321;32;34545;-86
2023/12/19 09:57:28;;;;;;;;;;;;;;;1.53;83.31;100625.66;4352984;32;33707;-88
2023/12/19 09:59:57;;;;;;;;;;;;;;;1.81;82.15;100619.87;4340052;32;33979;-86
2023/12/19 10:02:29;;;;;;;;;;;;;;;1.86;83.50;100610.66;4350332;32;33658;-86
2023/12/19 10:05:04;;;;;;;;;;;;;;;2.02;82.02;100615.53;4359276;32;34573;-86
2023/12/19 10:07:32;;;;;;;;;;;;;;;1.69;84.05;100610.03;4359954;32;34402;-85
2023/12/19 10:10:08;;;;;;;;;;;;;;;1.48;84.31;100599.91;4355005;32;34323;-85
2023/12/19 10:12:44;;;;;;;;;;;;;;;1.82;83.34;100596.91;4354825;32;33089;-85
2023/12/19 10:15:28;;;;;;;;;;;;;;;2.41;81.24;100588.72;4356151;32;34542;-86
2023/12/19 10:18:03;;;;;;;;;;;;;;;2.44;80.98;100578.56;4350627;32;33446;-88
2023/12/19 10:20:38;;;;;;;;;;;;;;;2.19;82.26;100580.31;4344553;33;34415;-88
2023/12/19 10:23:11;;;;;;;;;;;;;;;2.63;80.35;100572.37;4340085;33;32996;-86
2023/12/19 10:25:40;;;;;;;;;;;;;;;2.66;80.27;100569.91;4340934;32;33958;-86
2023/12/19 10:28:14;;;;;;;;;;;;;;;2.80;79.92;100563.56;4341368;33;34458;-86
2023/12/19 10:30:43;;;;;;;;;;;;;;;2.85;79.45;100562.03;4351117;32;33390;-87
2023/12/19 10:33:14;;;;;;;;;;;;;;;2.05;82.95;100559.34;4351201;32;32870;-88
2023/12/19 10:35:44;;;;;;;;;;;;;;;2.84;80.53;100550.03;4360367;32;34703;-86
2023/12/19 10:38:14;;;;;;;;;;;;;;;2.71;80.09;100556.44;4355650;32;33922;-87
2023/12/19 10:40:43;;;;;;;;;;;;;;;2.86;78.80;100553.50;4356349;32;33793;-88
2023/12/19 10:43:18;;;;;;;;;;;;;;;2.24;81.94;100552.31;4360148;32;33296;-86
2023/12/19 10:45:48;;;;;;;;;;;;;;;2.61;80.90;100556.09;4354408;32;33780;-87
2023/12/19 10:48:22;;;;;;;;;;;;;;;3.01;78.77;100553.13;4343373;33;34158;-87
2023/12/19 10:50:52;;;;;;;;;;;;;;;3.01;78.63;100544.56;4340942;33;33977;-85
2023/12/19 10:53:21;;;;;;;;;;;;;;;2.90;78.77;100544.22;4345263;32;34157;-86
2023/12/19 10:55:50;;;;;;;;;;;;;;;1.50;83.86;100539.47;4360300;32;34042;-88
2023/12/19 10:58:22;;;;;;;;;;;;;;;2.20;81.71;100535.97;4355365;32;34697;-87
2023/12/19 11:00:51;;;;;;;;;;;;;;;2.16;80.77;100528.16;4354611;32;33899;-88
2023/12/19 11:03:23;;;;;;;;;;;;;;;2.46;81.34;100530.84;4355943;32;33762;-88
2023/12/19 11:05:53;;;;;;;;;;;;;;;1.96;83.65;100528.31;4358849;32;33564;-86
2023/12/19 11:08:23;;;;;;;;;;;;;;;2.36;81.68;100511.75;4347528;32;35053;-88
2023/12/19 11:10:55;;;;;;;;;;;;;;;2.78;79.81;100516.53;4348933;32;34671;-87
2023/12/19 11:13:25;;;;;;;;;;;;;;;2.52;81.37;100515.69;4347407;32;33367;-86
2023/12/19 11:15:54;;;;;;;;;;;;;;;2.20;80.29;100522.28;4351628;32;34152;-89
2023/12/19 11:18:28;;;;;;;;;;;;;;;2.54;81.16;100516.62;4359389;32;33790;-86
2023/12/19 11:20:59;;;;;;;;;;;;;;;2.61;80.24;100504.84;4348317;32;34761;-86
2023/12/19 11:23:29;;;;;;;;;;;;;;;2.77;78.98;100499.41;4350988;32;34456;-87
2023/12/19 11:25:58;;;;;;;;;;;;;;;2.10;81.18;100487.81;4343455;33;34161;-88
2023/12/19 11:28:29;;;;;;;;;;;;;;;2.28;81.01;100485.03;4345270;33;33867;-89
2023/12/19 11:30:57;;;;;;;;;;;;;;;2.45;80.67;100477.91;4350478;32;34262;-87
2023/12/19 11:33:47;;;;;;;;;;;;;;;2.72;80.42;100465.09;4348570;32;32765;-88
2023/12/19 11:36:26;;;;;;;;;;;;;;;2.70;80.16;100471.84;4336501;32;35541;-86
2023/12/19 11:39:09;;;;;;;;;;;;;;;2.40;81.89;100469.19;4343258;32;33584;-88
2023/12/19 11:41:38;;;;;;;;;;;;;;;2.90;79.47;100468.22;4350112;32;34422;-87
2023/12/19 11:44:07;;;;;;;;;;;;;;;2.63;81.15;100465.66;4351394;32;33229;-89
2023/12/19 11:46:35;;;;;;;;;;;;;;;2.74;80.32;100471.13;4354346;32;34154;-88
2023/12/19 11:49:05;;;;;;;;;;;;;;;2.97;79.38;100479.50;4350892;32;34339;-86
2023/12/19 11:51:45;;;;;;;;;;;;;;;2.96;79.27;100470.94;4348387;32;34429;-87
2023/12/19 11:54:14;;;;;;;;;;;;;;;2.88;78.94;100466.44;4357423;32;32472;-87
2023/12/19 11:56:43;;;;;;;;;;;;;;;2.25;82.11;100467.87;4354289;32;33699;-88
2023/12/19 11:59:13;;;;;;;;;;;;;;;2.20;82.11;100473.66;4356112;32;33682;-86
2023/12/19 12:01:44;;;;;;;;;;;;;;;2.55;80.50;100467.97;4347831;32;34282;-87
2023/12/19 12:04:13;;;;;;;;;;;;;;;1.95;81.99;100466.84;4350222;32;33742;-89
2023/12/19 12:06:49;;;;;;;;;;;;;;;2.24;81.29;100472.94;4356040;32;33250;-88
2023/12/19 12:09:19;;;;;;;;;;;;;;;2.35;80.97;100461.38;4350891;32;33488;-89
2023/12/19 12:11:51;;;;;;;;;;;;;;;2.42;80.18;100454.75;4349433;32;34782;-87
2023/12/19 12:14:21;;;;;;;;;;;;;;;1.23;84.24;100453.28;4358065;32;33339;-87
2023/12/19 12:16:53;;;;;;;;;;;;;;;2.07;82.49;100457.87;4348056;32;34412;-88
2023/12/19 12:19:22;;;;;;;;;;;;;;;2.15;81.12;100458.16;4333405;32;33177;-87
2023/12/19 12:21:57;;;;;;;;;;;;;;;2.35;80.28;100457.13;4344703;32;34176;-88
2023/12/19 12:24:29;;;;;;;;;;;;;;;2.64;79.66;100452.03;4344982;32;34028;-86
2023/12/19 12:27:10;;;;;;;;;;;;;;;2.67;79.81;100453.81;4343720;32;33939;-88
2023/12/19 12:29:40;;;;;;;;;;;;;;;2.50;80.68;100440.50;4350993;32;33942;-88
2023/12/19 12:32:10;;;;;;;;;;;;;;;2.82;78.54;100431.22;4345591;32;34992;-89
2023/12/19 12:34:44;;;;;;;;;;;;;;;2.92;77.89;100427.25;4355800;32;32771;-89
2023/12/19 12:37:17;;;;;;;;;;;;;;;2.90;78.14;100419.53;4349949;32;33561;-87
2023/12/19 12:39:47;;;;;;;;;;;;;;;2.82;78.54;100418.41;4350641;32;34721;-87
2023/12/19 12:42:20;;;;;;;;;;;;;;;2.84;78.48;100403.97;4357813;32;33810;-87
2023/12/19 12:44:58;;;;;;;;;;;;;;;2.81;78.10;100401.31;4352890;32;32840;-88
2023/12/19 12:47:28;;;;;;;;;;;;;;;2.67;79.37;100400.88;4340937;32;34602;-87
2023/12/19 12:50:02;;;;;;;;;;;;;;;2.97;77.82;100390.69;4352416;32;34721;-90
2023/12/19 12:52:32;;;;;;;;;;;;;;;2.98;76.86;100394.13;4341253;32;33748;-87
2023/12/19 12:55:06;;;;;;;;;;;;;;;3.08;76.45;100385.84;4359636;32;31830;-89
2023/12/19 12:57:34;;;;;;;;;;;;;;;2.78;78.07;100386.72;4354383;32;33302;-88
2023/12/19 13:00:08;;;;;;;;;;;;;;;2.89;78.32;100368.22;4344325;32;32985;-90
2023/12/19 13:02:52;;;;;;;;;;;;;;;2.91;77.66;100372.56;4347386;32;34237;-87
2023/12/19 13:05:21;;;;;;;;;;;;;;;3.22;76.17;100365.72;4357850;32;33322;-88
2023/12/19 13:07:55;;;;;;;;;;;;;;;3.07;76.74;100371.31;4355581;32;34242;-87